createdAt,value
2022-11-28T00:02:06.884Z,6.07
2022-11-28T00:04:33.369Z,6.70
2022-11-28T00:06:59.845Z,5.47
2022-11-28T00:09:26.354Z,5.07
2022-11-28T00:11:52.796Z,5.10
2022-11-28T00:14:19.848Z,5.40
2022-11-28T00:16:47.222Z,5.30
2022-11-28T00:19:14.113Z,5.47
2022-11-28T00:21:41.493Z,5.60
2022-11-28T00:24:08.509Z,6.27
2022-11-28T00:26:38.056Z,4.97
2022-11-28T00:29:06.489Z,5.33
2022-11-28T00:31:42.261Z,4.63
2022-11-28T00:34:11.491Z,4.57
2022-11-28T00:36:37.997Z,5.10
2022-11-28T00:39:05.757Z,4.87
2022-11-28T00:41:34.893Z,5.13
2022-11-28T00:44:01.910Z,5.07
2022-11-28T00:46:30.274Z,5.00
2022-11-28T00:48:58.347Z,5.97
2022-11-28T00:51:28.365Z,5.47
2022-11-28T00:53:57.358Z,5.07
2022-11-28T00:56:30.309Z,5.23
2022-11-28T00:58:57.793Z,4.53
2022-11-28T01:01:28.505Z,4.67
2022-11-28T01:03:56.882Z,4.70
2022-11-28T01:06:36.014Z,3.80
2022-11-28T01:09:08.266Z,4.10
2022-11-28T01:11:35.326Z,3.67
2022-11-28T01:14:02.343Z,3.50
2022-11-28T01:16:29.650Z,3.83
2022-11-28T01:18:56.474Z,4.03
2022-11-28T01:21:23.696Z,4.20
2022-11-28T01:23:50.465Z,3.90
2022-11-28T01:26:21.383Z,4.00
2022-11-28T01:28:48.608Z,4.30
2022-11-28T01:31:17.315Z,3.97
2022-11-28T01:33:44.322Z,4.00
2022-11-28T01:36:12.152Z,3.80
2022-11-28T01:38:39.030Z,4.10
2022-11-28T01:41:06.556Z,3.63
2022-11-28T01:43:33.429Z,3.77
2022-11-28T01:45:59.933Z,4.10
2022-11-28T01:48:31.116Z,4.03
2022-11-28T01:51:00.923Z,4.03
2022-11-28T01:53:30.668Z,3.87
2022-11-28T01:56:01.768Z,3.53
2022-11-28T01:58:30.763Z,3.57
2022-11-28T02:00:58.048Z,3.37
2022-11-28T02:03:38.281Z,3.50
2022-11-28T02:06:05.117Z,4.10
2022-11-28T02:08:35.649Z,3.50
2022-11-28T02:11:18.246Z,3.67
2022-11-28T02:13:50.755Z,3.00
2022-11-28T02:16:56.062Z,3.37
2022-11-28T02:19:45.747Z,3.40
2022-11-28T02:22:46.077Z,3.50
2022-11-28T02:25:33.790Z,3.67
2022-11-28T02:28:42.166Z,3.80
2022-11-28T02:31:45.764Z,3.53
2022-11-28T02:34:22.758Z,3.30
2022-11-28T02:36:52.849Z,3.40
2022-11-28T02:39:45.713Z,3.70
2022-11-28T02:42:18.281Z,4.10
2022-11-28T02:45:01.035Z,4.50
2022-11-28T02:47:33.684Z,5.40
2022-11-28T02:50:07.373Z,5.40
2022-11-28T02:52:39.651Z,5.50
2022-11-28T02:55:07.488Z,4.70
2022-11-28T02:57:46.354Z,4.60
2022-11-28T03:00:35.340Z,4.93
2022-11-28T03:03:36.639Z,3.97
2022-11-28T03:06:21.313Z,4.23
2022-11-28T03:09:06.613Z,4.30
2022-11-28T03:12:11.701Z,3.63
2022-11-28T03:15:09.305Z,4.13
2022-11-28T03:17:54.243Z,4.50
2022-11-28T03:20:29.069Z,4.70
2022-11-28T03:23:11.817Z,4.30
2022-11-28T03:25:44.073Z,4.50
2022-11-28T03:28:29.423Z,4.53
2022-11-28T03:31:02.742Z,4.60
2022-11-28T03:33:33.339Z,4.53
2022-11-28T03:36:12.634Z,4.37
2022-11-28T03:38:44.159Z,4.50
2022-11-28T03:41:18.681Z,4.33
2022-11-28T03:43:52.204Z,4.07
2022-11-28T03:46:21.890Z,4.30
2022-11-28T03:48:53.399Z,4.17
2022-11-28T03:51:39.865Z,4.20
2022-11-28T03:54:24.079Z,4.50
2022-11-28T03:57:07.858Z,3.97
2022-11-28T03:59:38.430Z,3.70
2022-11-28T04:02:48.267Z,3.83
2022-11-28T04:05:21.269Z,4.37
2022-11-28T04:07:57.564Z,4.40
2022-11-28T04:10:33.926Z,4.03
2022-11-28T04:13:09.887Z,3.90
2022-11-28T04:16:05.152Z,3.73
2022-11-28T04:18:48.925Z,3.93
2022-11-28T04:21:30.983Z,4.00
2022-11-28T04:24:03.799Z,4.03
2022-11-28T04:26:36.844Z,3.73
2022-11-28T04:29:10.030Z,3.93
2022-11-28T04:31:39.525Z,3.33
2022-11-28T04:34:08.746Z,3.57
2022-11-28T04:36:38.999Z,3.27
2022-11-28T04:39:09.773Z,3.37
2022-11-28T04:41:42.215Z,3.20
2022-11-28T04:44:19.104Z,3.20
2022-11-28T04:46:51.154Z,3.33
2022-11-28T04:49:17.744Z,3.47
2022-11-28T04:51:50.158Z,2.90
2022-11-28T04:54:19.854Z,3.23
2022-11-28T04:56:55.810Z,3.70
2022-11-28T04:59:26.197Z,3.87
2022-11-28T05:01:53.701Z,3.60
2022-11-28T05:04:20.310Z,3.87
2022-11-28T05:06:46.956Z,3.60
2022-11-28T05:09:13.934Z,3.83
2022-11-28T05:11:40.499Z,3.37
2022-11-28T05:14:07.030Z,3.47
2022-11-28T05:16:33.630Z,3.40
2022-11-28T05:19:00.120Z,3.57
2022-11-28T05:21:26.605Z,3.37
2022-11-28T05:23:53.047Z,4.00
2022-11-28T05:26:20.938Z,3.70
2022-11-28T05:28:50.070Z,3.83
2022-11-28T05:31:19.107Z,3.53
2022-11-28T05:33:45.639Z,4.40
2022-11-28T05:36:13.774Z,3.97
2022-11-28T05:38:41.526Z,4.40
2022-11-28T05:41:09.194Z,3.83
2022-11-28T05:43:36.108Z,4.13
2022-11-28T05:46:05.741Z,3.30
2022-11-28T05:48:32.542Z,3.30
2022-11-28T05:50:59.031Z,3.50
2022-11-28T05:53:25.888Z,3.60
2022-11-28T05:55:52.501Z,3.43
2022-11-28T05:58:18.987Z,3.53
2022-11-28T06:00:45.598Z,3.70
2022-11-28T06:03:12.091Z,4.20
2022-11-28T06:05:43.533Z,4.17
2022-11-28T06:08:13.574Z,3.63
2022-11-28T06:10:41.561Z,4.07
2022-11-28T06:13:08.449Z,4.00
2022-11-28T06:15:38.360Z,3.80
2022-11-28T06:18:05.657Z,3.97
2022-11-28T06:20:34.819Z,4.07
2022-11-28T06:23:01.313Z,4.20
2022-11-28T06:25:27.920Z,4.03
2022-11-28T06:27:54.388Z,4.40
2022-11-28T06:30:20.924Z,3.97
2022-11-28T06:32:47.416Z,4.70
2022-11-28T06:35:13.933Z,4.40
2022-11-28T06:37:40.480Z,4.37
2022-11-28T06:40:09.425Z,4.57
2022-11-28T06:42:36.759Z,5.03
2022-11-28T06:45:04.494Z,7.73
2022-11-28T06:47:31.154Z,7.43
2022-11-28T06:49:57.640Z,7.27
2022-11-28T06:52:24.158Z,6.90
2022-11-28T06:54:50.611Z,7.70
2022-11-28T06:57:17.086Z,5.67
2022-11-28T06:59:43.600Z,5.10
2022-11-28T07:02:11.521Z,5.60
2022-11-28T07:04:38.123Z,5.50
2022-11-28T07:07:04.600Z,6.10
2022-11-28T07:09:31.337Z,6.20
2022-11-28T07:11:57.816Z,7.17
2022-11-28T07:14:24.342Z,6.60
2022-11-28T07:16:50.992Z,6.10
2022-11-28T07:19:22.918Z,6.47
2022-11-28T07:21:50.244Z,7.70
2022-11-28T07:24:19.865Z,8.20
2022-11-28T07:26:46.958Z,6.57
2022-11-28T07:29:18.357Z,6.47
2022-11-28T07:31:45.420Z,5.90
2022-11-28T07:34:12.270Z,5.60
2022-11-28T07:36:38.900Z,5.30
2022-11-28T07:39:11.099Z,6.20
2022-11-28T07:41:37.601Z,6.57
2022-11-28T07:44:05.144Z,5.40
2022-11-28T07:46:32.957Z,5.50
2022-11-28T07:48:59.759Z,5.80
2022-11-28T07:51:32.366Z,5.20
2022-11-28T07:53:59.938Z,4.97
2022-11-28T07:56:50.247Z,5.17
2022-11-28T07:59:16.347Z,5.30
2022-11-28T08:01:42.969Z,5.63
2022-11-28T08:04:10.259Z,5.50
2022-11-28T08:06:40.112Z,5.17
2022-11-28T08:09:07.243Z,4.93
2022-11-28T08:11:34.630Z,7.17
2022-11-28T08:14:01.745Z,8.43
2022-11-28T08:16:29.630Z,9.83
2022-11-28T08:18:56.456Z,10.27
2022-11-28T08:21:25.794Z,13.17
2022-11-28T08:23:54.308Z,11.50
2022-11-28T08:26:28.815Z,9.50
2022-11-28T08:28:57.761Z,9.60
2022-11-28T08:31:26.920Z,9.77
2022-11-28T08:33:55.506Z,10.17
2022-11-28T08:36:22.506Z,9.80
2022-11-28T08:39:03.466Z,10.27
2022-11-28T08:41:36.283Z,11.30
2022-11-28T08:44:02.834Z,10.40
2022-11-28T08:46:29.488Z,10.03
2022-11-28T08:48:56.030Z,9.70
2022-11-28T08:51:26.347Z,8.93
2022-11-28T08:53:59.130Z,9.03
2022-11-28T08:56:26.247Z,9.50
2022-11-28T08:58:52.761Z,9.17
2022-11-28T09:01:21.823Z,9.03
2022-11-28T09:03:48.902Z,8.17
2022-11-28T09:06:16.538Z,8.93
2022-11-28T09:08:43.856Z,10.67
2022-11-28T09:11:12.519Z,8.93
2022-11-28T09:13:39.254Z,9.03
2022-11-28T09:16:06.065Z,8.53
2022-11-28T09:18:32.666Z,7.50
2022-11-28T09:21:05.365Z,8.90
2022-11-28T09:23:31.853Z,7.90
2022-11-28T09:25:58.365Z,8.77
2022-11-28T09:28:24.956Z,9.13
2022-11-28T09:31:00.008Z,12.50
2022-11-28T09:33:26.659Z,24.63
2022-11-28T09:35:55.307Z,14.03
2022-11-28T09:38:25.532Z,23.70
2022-11-28T09:40:52.596Z,15.83
2022-11-28T09:43:35.555Z,14.93
2022-11-28T09:46:07.856Z,16.13
2022-11-28T09:48:39.921Z,12.70
2022-11-28T09:51:32.389Z,9.93
2022-11-28T09:54:06.938Z,8.43
2022-11-28T09:56:33.419Z,8.20
2022-11-28T09:59:03.465Z,7.63
2022-11-28T10:02:02.202Z,7.00
2022-11-28T10:04:48.728Z,6.87
2022-11-28T10:07:40.649Z,7.57
2022-11-28T10:10:40.767Z,9.70
2022-11-28T10:13:21.316Z,8.23
2022-11-28T10:16:10.080Z,8.53
2022-11-28T10:18:50.831Z,10.10
2022-11-28T10:21:36.182Z,8.30
2022-11-28T10:24:23.637Z,9.80
2022-11-28T10:26:59.167Z,8.83
2022-11-28T10:29:31.855Z,9.33
2022-11-28T10:32:01.812Z,8.80
2022-11-28T10:34:36.542Z,7.60
2022-11-28T10:37:25.264Z,6.80
2022-11-28T10:39:52.564Z,6.50
2022-11-28T10:42:32.110Z,6.20
2022-11-28T10:45:10.352Z,6.47
2022-11-28T10:48:07.511Z,7.97
2022-11-28T10:51:11.266Z,8.40
2022-11-28T10:54:19.246Z,6.70
2022-11-28T10:57:03.224Z,6.63
2022-11-28T10:59:55.718Z,6.37
2022-11-28T11:02:33.825Z,7.07
2022-11-28T11:05:00.669Z,6.67
2022-11-28T11:07:32.782Z,7.10
2022-11-28T11:10:12.290Z,7.37
2022-11-28T11:12:39.636Z,7.73
2022-11-28T11:15:36.111Z,6.80
2022-11-28T11:18:19.358Z,5.97
2022-11-28T11:20:45.840Z,6.00
2022-11-28T11:23:20.159Z,6.50
2022-11-28T11:25:50.840Z,6.00
2022-11-28T11:28:47.371Z,6.87
2022-11-28T11:31:19.630Z,6.50
2022-11-28T11:33:47.447Z,6.03
2022-11-28T11:36:22.206Z,5.90
2022-11-28T11:38:48.756Z,6.20
2022-11-28T11:41:34.195Z,6.17
2022-11-28T11:44:16.006Z,6.20
2022-11-28T11:47:05.216Z,6.40
2022-11-28T11:49:40.457Z,6.07
2022-11-28T11:52:13.245Z,6.37
2022-11-28T11:55:20.205Z,5.97
2022-11-28T11:57:51.465Z,5.63
2022-11-28T12:00:26.160Z,5.43
2022-11-28T12:03:26.887Z,5.70
2022-11-28T12:06:16.590Z,5.77
2022-11-28T12:08:51.418Z,5.73
2022-11-28T12:11:47.135Z,6.03
2022-11-28T12:14:27.677Z,5.80
2022-11-28T12:17:40.584Z,5.40
2022-11-28T12:20:40.372Z,6.00
2022-11-28T12:23:24.250Z,6.83
2022-11-28T12:26:23.075Z,6.63
2022-11-28T12:29:14.284Z,6.40
2022-11-28T12:31:46.883Z,6.73
2022-11-28T12:34:54.201Z,6.10
2022-11-28T12:40:51.849Z,5.73
2022-11-28T12:43:30.171Z,5.93
2022-11-28T12:46:15.657Z,6.17
2022-11-28T12:49:10.466Z,6.60
2022-11-28T12:51:40.050Z,6.63
2022-11-28T12:54:32.603Z,6.07
2022-11-28T12:57:03.597Z,6.10
2022-11-28T13:00:07.011Z,5.67
2022-11-28T13:02:54.209Z,5.50
2022-11-28T13:05:47.844Z,5.60
2022-11-28T13:08:23.357Z,5.63
2022-11-28T13:11:03.895Z,6.33
2022-11-28T13:13:39.779Z,5.87
2022-11-28T13:16:43.516Z,6.30
2022-11-28T13:19:38.821Z,5.97
2022-11-28T13:22:15.774Z,6.20
2022-11-28T13:25:00.800Z,6.37
2022-11-28T13:27:32.329Z,6.00
2022-11-28T13:30:22.533Z,5.80
2022-11-28T13:33:04.260Z,6.83
2022-11-28T13:35:31.415Z,5.73
2022-11-28T13:38:38.418Z,5.97
2022-11-28T13:41:43.817Z,5.60
2022-11-28T13:44:42.183Z,5.73
2022-11-28T13:47:21.178Z,5.53
2022-11-28T13:49:47.830Z,5.77
2022-11-28T13:52:17.452Z,6.00
2022-11-28T13:54:51.445Z,5.57
2022-11-28T13:57:26.630Z,5.60
2022-11-28T14:00:19.415Z,5.93
2022-11-28T14:02:58.956Z,6.20
2022-11-28T14:05:34.562Z,7.10
2022-11-28T14:08:03.106Z,6.17
2022-11-28T14:10:49.551Z,8.33
2022-11-28T14:13:37.648Z,6.77
2022-11-28T14:16:14.401Z,6.40
2022-11-28T14:18:57.696Z,6.60
2022-11-28T14:21:31.818Z,5.70
2022-11-28T14:24:26.805Z,5.90
2022-11-28T14:27:00.805Z,6.93
2022-11-28T14:29:35.914Z,8.87
2022-11-28T14:32:28.880Z,7.77
2022-11-28T14:34:50.910Z,8.23
2022-11-28T14:37:21.612Z,8.80
2022-11-28T14:39:49.827Z,7.37
2022-11-28T14:42:44.066Z,8.27
2022-11-28T14:45:32.362Z,9.10
2022-11-28T14:48:18.069Z,7.17
2022-11-28T14:50:52.503Z,7.53
2022-11-28T14:53:47.045Z,10.67
2022-11-28T14:56:24.225Z,9.80
2022-11-28T14:58:55.657Z,11.00
2022-11-28T15:01:40.927Z,15.90
2022-11-28T15:04:36.281Z,15.57
2022-11-28T15:07:08.027Z,12.50
2022-11-28T15:10:07.663Z,8.57
2022-11-28T15:13:02.402Z,7.60
2022-11-28T15:15:29.612Z,5.03
2022-11-28T15:18:00.301Z,5.57
2022-11-28T15:20:44.471Z,5.30
2022-11-28T15:23:35.057Z,4.77
2022-11-28T15:26:02.398Z,5.40
2022-11-28T15:28:32.311Z,5.00
2022-11-28T15:31:01.273Z,4.60
2022-11-28T15:33:29.480Z,4.37
2022-11-28T15:36:10.737Z,4.47
2022-11-28T15:38:38.308Z,4.37
2022-11-28T15:41:05.143Z,4.40
2022-11-28T15:43:32.390Z,4.40
2022-11-28T15:46:02.697Z,4.30
2022-11-28T15:48:51.312Z,4.10
2022-11-28T15:51:37.795Z,4.57
2022-11-28T15:54:26.533Z,3.93
2022-11-28T15:56:57.285Z,3.80
2022-11-28T15:59:23.863Z,4.07
2022-11-28T16:01:53.568Z,4.70
2022-11-28T16:04:25.157Z,4.10
2022-11-28T16:06:55.933Z,4.17
2022-11-28T16:09:35.040Z,4.10
2022-11-28T16:12:04.924Z,4.17
2022-11-28T16:14:34.401Z,4.33
2022-11-28T16:17:14.655Z,4.17
2022-11-28T16:19:43.862Z,5.07
2022-11-28T16:22:16.453Z,4.67
2022-11-28T16:24:47.031Z,4.60
2022-11-28T16:27:36.471Z,4.37
2022-11-28T16:30:24.591Z,4.37
2022-11-28T16:32:53.365Z,3.77
2022-11-28T16:35:25.553Z,4.13
2022-11-28T16:37:52.289Z,4.93
2022-11-28T16:40:23.140Z,4.90
2022-11-28T16:42:56.581Z,4.80
2022-11-28T16:45:29.633Z,5.40
2022-11-28T16:48:05.691Z,5.10
2022-11-28T16:50:32.556Z,5.37
2022-11-28T16:52:59.071Z,4.97
2022-11-28T16:55:28.487Z,5.13
2022-11-28T16:58:12.711Z,5.00
2022-11-28T17:00:42.174Z,5.63
2022-11-28T17:03:42.179Z,5.33
2022-11-28T17:06:33.933Z,5.23
2022-11-28T17:09:01.609Z,5.50
2022-11-28T17:11:32.595Z,5.57
2022-11-28T17:14:02.268Z,5.23
2022-11-28T17:16:33.256Z,4.97
2022-11-28T17:19:00.111Z,4.77
2022-11-28T17:21:33.061Z,4.90
2022-11-28T17:24:02.864Z,4.50
2022-11-28T17:26:29.431Z,4.60
2022-11-28T17:28:57.820Z,4.83
2022-11-28T17:31:24.321Z,4.67
2022-11-28T17:33:51.064Z,5.20
2022-11-28T17:36:17.532Z,4.73
2022-11-28T17:38:44.058Z,4.97
2022-11-28T17:41:14.588Z,5.13
2022-11-28T17:43:41.925Z,5.63
2022-11-28T17:46:08.899Z,5.70
2022-11-28T17:48:35.656Z,6.07
2022-11-28T17:51:03.613Z,5.90
2022-11-28T17:53:30.609Z,6.00
2022-11-28T17:55:59.633Z,5.30
2022-11-28T17:58:27.532Z,5.27
2022-11-28T18:00:59.937Z,5.90
2022-11-28T18:03:28.169Z,5.27
2022-11-28T18:05:54.697Z,6.00
2022-11-28T18:08:22.342Z,5.40
2022-11-28T18:10:49.471Z,7.37
2022-11-28T18:13:17.624Z,12.20
2022-11-28T18:15:46.887Z,14.87
2022-11-28T18:18:13.584Z,14.17
2022-11-28T18:20:40.045Z,15.40
2022-11-28T18:23:06.974Z,14.77
2022-11-28T18:25:35.014Z,14.17
2022-11-28T18:28:02.444Z,15.67
2022-11-28T18:30:29.304Z,17.07
2022-11-28T18:32:56.900Z,18.47
2022-11-28T18:35:23.689Z,19.57
2022-11-28T18:37:50.361Z,20.77
2022-11-28T18:40:16.997Z,23.57
2022-11-28T18:42:44.532Z,24.97
2022-11-28T18:45:11.907Z,29.60
2022-11-28T18:47:38.682Z,30.20
2022-11-28T18:50:05.883Z,27.77
2022-11-28T18:52:33.013Z,26.43
2022-11-28T18:54:59.475Z,24.77
2022-11-28T18:57:32.527Z,25.23
2022-11-28T19:00:01.034Z,28.77
2022-11-28T19:02:28.949Z,30.80
2022-11-28T19:04:56.050Z,29.77
2022-11-28T19:07:24.425Z,28.13
2022-11-28T19:09:51.185Z,27.33
2022-11-28T19:12:19.675Z,26.33
2022-11-28T19:14:46.515Z,26.03
2022-11-28T19:17:13.246Z,25.00
2022-11-28T19:19:41.318Z,23.97
2022-11-28T19:22:08.296Z,23.17
2022-11-28T19:24:34.927Z,22.17
2022-11-28T19:27:01.828Z,22.90
2022-11-28T19:29:28.320Z,20.90
2022-11-28T19:31:55.416Z,20.80
2022-11-28T19:34:22.603Z,22.00
2022-11-28T19:36:50.989Z,22.33
2022-11-28T19:39:23.827Z,21.77
2022-11-28T19:41:52.653Z,24.03
2022-11-28T19:44:20.863Z,22.80
2022-11-28T19:46:48.081Z,22.83
2022-11-28T19:49:20.212Z,20.93
2022-11-28T19:51:48.386Z,21.50
2022-11-28T19:54:16.314Z,23.10
2022-11-28T19:56:43.018Z,20.83
2022-11-28T19:59:10.700Z,20.63
2022-11-28T20:01:39.480Z,18.57
2022-11-28T20:04:06.803Z,20.20
2022-11-28T20:06:33.497Z,19.03
2022-11-28T20:09:03.629Z,20.20
2022-11-28T20:11:32.876Z,20.97
2022-11-28T20:14:06.296Z,19.83
2022-11-28T20:16:35.181Z,19.90
2022-11-28T20:19:02.455Z,20.97
2022-11-28T20:21:30.036Z,21.07
2022-11-28T20:24:02.549Z,20.27
2022-11-28T20:26:29.976Z,21.13
2022-11-28T20:28:57.426Z,22.27
2022-11-28T20:31:41.823Z,22.27
2022-11-28T20:34:08.854Z,21.77
2022-11-28T20:36:36.222Z,22.40
2022-11-28T20:39:04.684Z,21.73
2022-11-28T20:41:31.526Z,22.30
2022-11-28T20:44:01.639Z,22.73
2022-11-28T20:46:33.634Z,20.50
2022-11-28T20:49:02.218Z,18.63
2022-11-28T20:51:30.512Z,18.23
2022-11-28T20:53:58.208Z,16.47
2022-11-28T20:56:29.595Z,17.10
2022-11-28T20:59:00.549Z,17.77
2022-11-28T21:01:30.621Z,16.63
2022-11-28T21:03:57.413Z,17.97
2022-11-28T21:06:24.211Z,16.87
2022-11-28T21:08:51.085Z,17.37
2022-11-28T21:11:36.982Z,17.03
2022-11-28T21:14:07.486Z,16.23
2022-11-28T21:16:34.417Z,16.47
2022-11-28T21:19:07.483Z,16.73
2022-11-28T21:21:35.421Z,16.47
2022-11-28T21:24:11.462Z,15.87
2022-11-28T21:26:42.417Z,16.30
2022-11-28T21:29:12.354Z,16.53
2022-11-28T21:31:43.027Z,16.63
2022-11-28T21:34:14.146Z,16.03
2022-11-28T21:36:41.411Z,19.10
2022-11-28T21:39:09.074Z,17.87
2022-11-28T21:41:35.606Z,18.63
2022-11-28T21:44:03.538Z,18.53
2022-11-28T21:46:30.715Z,17.40
2022-11-28T21:48:58.385Z,18.30
2022-11-28T21:51:25.806Z,18.70
2022-11-28T21:53:52.281Z,20.57
2022-11-28T21:56:19.797Z,20.27
2022-11-28T21:58:46.296Z,15.97
2022-11-28T22:01:14.970Z,14.93
2022-11-28T22:03:43.715Z,14.37
2022-11-28T22:06:16.870Z,13.03
2022-11-28T22:08:44.394Z,14.13
2022-11-28T22:11:13.156Z,13.20
2022-11-28T22:13:42.262Z,13.30
2022-11-28T22:16:19.893Z,15.40
2022-11-28T22:18:49.281Z,14.53
2022-11-28T22:24:04.238Z,13.37
2022-11-28T22:26:31.627Z,14.27
2022-11-28T22:29:01.096Z,14.00
2022-11-28T22:31:27.842Z,12.47
2022-11-28T22:33:54.471Z,14.57
2022-11-28T22:36:21.854Z,13.70
2022-11-28T22:38:50.064Z,15.40
2022-11-28T22:41:24.772Z,15.63
2022-11-28T22:43:55.804Z,15.30
2022-11-28T22:46:22.797Z,15.10
2022-11-28T22:48:50.478Z,16.13
2022-11-28T22:51:22.319Z,18.20
2022-11-28T22:53:53.247Z,19.53
2022-11-28T22:56:19.773Z,22.20
2022-11-28T22:58:46.374Z,25.60
2022-11-28T23:01:17.684Z,28.13
2022-11-28T23:03:45.619Z,26.50
2022-11-28T23:06:16.797Z,26.40
2022-11-28T23:08:43.820Z,27.17
2022-11-28T23:11:13.838Z,24.40
2022-11-28T23:13:42.139Z,22.20
2022-11-28T23:16:08.635Z,23.90
2022-11-28T23:18:35.158Z,22.00
2022-11-28T23:21:01.661Z,22.33
2022-11-28T23:23:31.060Z,21.43
2022-11-28T23:25:57.587Z,21.73
2022-11-28T23:28:24.561Z,21.37
2022-11-28T23:30:51.078Z,20.63
2022-11-28T23:33:17.618Z,21.13
2022-11-28T23:35:44.065Z,19.60
2022-11-28T23:38:10.676Z,20.80
2022-11-28T23:40:37.211Z,20.87
2022-11-28T23:43:03.694Z,20.47
2022-11-28T23:45:30.244Z,20.93
2022-11-28T23:47:56.702Z,20.13
2022-11-28T23:50:23.312Z,20.03
2022-11-28T23:52:49.786Z,19.10
2022-11-28T23:55:16.257Z,18.70
2022-11-28T23:57:42.720Z,19.47
